• Join FlightAware (Why Join?)
  • Login
  • US Flag 
08:13PM EST


 

Airport Tracker/Info


-or-


 

Live Flight TrackerFlight Track Log ✈ UAL708 ✈ 13-Apr-2013 ✈ KLAX - PHNL

Flight Track Log - Related Links

Times and Time Zones

All times are in EDT time to prevent confusion due to time zone crossing. See the UAL708 flight status page for this flight to view local times or setup timezone preferences in your user account.

Time Position Orientation Groundspeed Altitude Reporting Facility
EDT Latitude Longitude Course Direction KTS MPH feet Rate Location/Type
01:36PM 33.9333 -118.4333 270° West 193 222 1,300  Level Southern California TRACON
01:37PM 33.9333 -118.5167 270° West 244 281 3,100 2,640 Climbing Southern California TRACON
01:38PM 33.9000 -118.8253 270° West  Level FlightAware Approximate
01:38PM 33.9208 -118.6156 261° West 255 293 7,000  Level Los Angeles Center
01:39PM 33.8778 -118.9662 264° West  Level FlightAware Approximate
01:39PM 33.9144 -118.7033 265° West 266 306 9,600  Level Los Angeles Center
01:40PM 33.8651 -119.1096 259° West  Level FlightAware Approximate
01:40PM 33.9103 -118.7975 267° West 295 339 11,000  Level Los Angeles Center
01:41PM 33.8500 -119.2520 270° West  Level FlightAware Approximate
01:41PM 33.9397 -118.9061 288° West 341 392 12,900  Level Los Angeles Center
01:42PM 33.9728 -119.0153 290° West 346 398 15,300 2,280 Climbing Los Angeles Center
01:43PM 33.9947 -119.1586 281° West 378 435 17,700 1,980 Climbing Los Angeles Center
01:44PM 33.9769 -119.2828 260° West 382 440 19,400 1,740 Climbing Los Angeles Center
01:45PM 33.9578 -119.4125 260° West 393 452 21,300 1,740 Climbing Los Angeles Center
01:46PM 33.9358 -119.5431 259° West 397 457 23,100 1,620 Climbing Los Angeles Center
01:47PM 33.9178 -119.6761 261° West 403 464 24,700 1,560 Climbing Los Angeles Center
01:48PM 33.8956 -119.8372 261° West 408 470 26,400 1,320 Climbing Los Angeles Center
01:49PM 33.8767 -119.9758 261° West 419 482 27,500 1,020 Climbing Los Angeles Center
01:50PM 33.8614 -120.1083 262° West 422 486 28,600 960 Climbing Los Angeles Center
01:51PM 33.8406 -120.2533 260° West 435 501 29,600 900 Climbing Los Angeles Center
01:52PM 33.8194 -120.4017 260° West 447 514 30,500 1,080 Climbing Los Angeles Center
01:53PM 33.7978 -120.5511 260° West 451 519 31,900 1,260 Climbing Los Angeles Center
01:54PM 33.7711 -120.7283 260° West 449 517 33,200 960 Climbing Los Angeles Center
01:56PM 33.7494 -120.8733 260° West 443 510 34,000 360 Climbing Los Angeles Center
01:57PM 33.7267 -121.0197 259° West 444 511 34,000 -60 Level Los Angeles Center
01:58PM 33.7053 -121.1650 260° West 442 509 33,900 -60 Descending Los Angeles Center
01:59PM 33.6831 -121.3114 260° West 443 510 33,900  Level Los Angeles Center
02:00PM 33.6600 -121.4586 259° West 446 513 34,000  Climbing Los Angeles Center
02:01PM 33.6317 -121.6353 259° West 448 516 34,000  Level Los Angeles Center
02:02PM 33.6078 -121.7836 259° West 451 519 34,000  Level Los Angeles Center
02:03PM 33.5847 -121.9314 259° West 452 520 34,000  Level Los Angeles Center
02:04PM 33.5628 -122.0806 260° West 452 520 34,000  Level Los Angeles Center
02:05PM 33.5383 -122.2292 259° West 454 522 34,000  Level Los Angeles Center
02:06PM 33.5117 -122.3747 258° West 452 520 34,000  Level Los Angeles Center
02:07PM 33.4808 -122.5511 258° West 452 520 34,000  Level Los Angeles Center
02:09PM 33.4283 -122.7756 257° West  Level FlightAware Approximate
02:16PM 33.2284 -123.7506 256° West  Level FlightAware Approximate
02:17PM 33.1992 -123.8895 256° West  Level FlightAware Approximate
02:18PM 33.1699 -124.0284 256° West  Level FlightAware Approximate
02:19PM 33.1404 -124.1671 256° West  Level FlightAware Approximate
02:20PM 33.1108 -124.3057 256° West  Level FlightAware Approximate
02:21PM 33.0785 -124.4430 239° Southwest  Level FlightAware Approximate
02:22PM 33.0525 -124.5799 255° West  Level FlightAware Approximate
02:22PM 33.0667 -124.5167 255° West 450 518 34,000  Level Oakland Oceanic (ODAPS)
02:23PM 33.0216 -124.7180 255° West  Level FlightAware Approximate
02:24PM 32.9905 -124.8560 255° West  Level FlightAware Approximate
02:25PM 32.9592 -124.9939 255° West  Level FlightAware Approximate
02:26PM 32.9278 -125.1317 255° West  Level FlightAware Approximate
02:27PM 32.8961 -125.2701 255° West  Level FlightAware Approximate
02:28PM 32.8045 -125.6655 254° West 450 518 34,000  Level FlightAware Transoceanic
02:29PM 32.7710 -125.8086 254° West 450 518 34,000  Level FlightAware Transoceanic
02:30PM 32.7373 -125.9516 254° West 450 518 34,000  Level FlightAware Transoceanic
02:31PM 32.7035 -126.0945 254° West 450 518 34,000  Level FlightAware Transoceanic
02:32PM 32.6695 -126.2373 254° West 450 518 34,000  Level FlightAware Transoceanic
02:33PM 32.6353 -126.3800 254° West 450 518 34,000  Level FlightAware Transoceanic
02:34PM 32.6010 -126.5226 254° West 450 518 34,000  Level FlightAware Transoceanic
02:35PM 32.5665 -126.6650 254° West 450 518 34,000  Level FlightAware Transoceanic
02:36PM 32.5319 -126.8074 254° West 450 518 34,000  Level FlightAware Transoceanic
02:37PM 32.4971 -126.9497 254° West 450 518 34,000  Level FlightAware Transoceanic
02:38PM 32.4621 -127.0918 254° West 450 518 34,000  Level FlightAware Transoceanic
02:39PM 32.4270 -127.2338 254° West 450 518 34,000  Level FlightAware Transoceanic
02:40PM 32.3917 -127.3757 254° West 450 518 34,000  Level FlightAware Transoceanic
02:41PM 32.3563 -127.5175 253° West 450 518 34,000  Level FlightAware Transoceanic
02:42PM 32.3207 -127.6592 253° West 450 518 34,000  Level FlightAware Transoceanic
02:43PM 32.2850 -127.8008 253° West 450 518 34,000  Level FlightAware Transoceanic
02:44PM 32.2490 -127.9423 253° West 450 518 34,000  Level FlightAware Transoceanic
02:45PM 32.2130 -128.0837 253° West 450 518 34,000  Level FlightAware Transoceanic
02:46PM 32.1767 -128.2249 253° West 450 518 34,000  Level FlightAware Transoceanic
02:47PM 32.1404 -128.3660 253° West 450 518 34,000  Level FlightAware Transoceanic
02:48PM 32.1038 -128.5071 253° West 450 518 34,000  Level FlightAware Transoceanic
02:49PM 32.0671 -128.6480 253° West 450 518 34,000  Level FlightAware Transoceanic
02:50PM 32.0303 -128.7888 253° West 450 518 34,000  Level FlightAware Transoceanic
02:51PM 31.9933 -128.9294 253° West 450 518 34,000  Level FlightAware Transoceanic
02:52PM 31.9561 -129.0700 253° West 450 518 34,000  Level FlightAware Transoceanic
02:53PM 31.9188 -129.2105 253° West 450 518 34,000  Level FlightAware Transoceanic
02:54PM 31.8813 -129.3508 253° West 450 518 34,000  Level FlightAware Transoceanic
02:55PM 31.8437 -129.4910 252° West 450 518 34,000  Level FlightAware Transoceanic
02:56PM 31.8059 -129.6311 252° West 450 518 34,000  Level FlightAware Transoceanic
02:57PM 31.7680 -129.7711 252° West 450 518 34,000  Level FlightAware Transoceanic
02:58PM 31.7299 -129.9110 252° West 450 518 34,000  Level FlightAware Transoceanic
02:59PM 31.6917 -130.0508 252° West 450 518 34,000  Level FlightAware Transoceanic
03:00PM 31.6533 -130.1904 252° West 450 518 34,000  Level FlightAware Transoceanic
03:01PM 31.6147 -130.3300 252° West 450 518 34,000  Level FlightAware Transoceanic
03:02PM 31.5760 -130.4694 252° West 450 518 34,000  Level FlightAware Transoceanic
03:03PM 31.5372 -130.6087 252° West 450 518 34,000  Level FlightAware Transoceanic
03:04PM 31.4982 -130.7479 252° West 450 518 34,000  Level FlightAware Transoceanic
03:05PM 31.4590 -130.8869 252° West 450 518 34,000  Level FlightAware Transoceanic
03:06PM 31.4197 -131.0259 252° West 450 518 34,000  Level FlightAware Transoceanic
03:07PM 31.3803 -131.1647 252° West 450 518 34,000  Level FlightAware Transoceanic
03:08PM 31.3407 -131.3035 251° West 450 518 34,000  Level FlightAware Transoceanic
03:09PM 31.3009 -131.4421 251° West 450 518 34,000  Level FlightAware Transoceanic
03:10PM 31.2610 -131.5806 251° West 450 518 34,000  Level FlightAware Transoceanic
03:11PM 31.2210 -131.7189 251° West 450 518 34,000  Level FlightAware Transoceanic
03:12PM 31.1808 -131.8572 251° West 450 518 34,000  Level FlightAware Transoceanic
03:13PM 31.1405 -131.9953 251° West 450 518 34,000  Level FlightAware Transoceanic
03:14PM 31.1000 -132.1333 251° West 450 518 34,000  Level FlightAware Transoceanic
03:15PM 31.0577 -132.2770 251° West 450 518 34,000  Level FlightAware Transoceanic
03:15PM 31.1000 -132.1333 251° West 468 539 34,000  Level Oakland Oceanic (ODAPS)
03:16PM 31.0153 -132.4206 251° West 450 518 34,000  Level FlightAware Transoceanic
03:17PM 30.9727 -132.5640 251° West 450 518 34,000  Level FlightAware Transoceanic
03:18PM 30.9300 -132.7073 251° West 450 518 34,000  Level FlightAware Transoceanic
03:19PM 30.8871 -132.8505 251° West 450 518 34,000  Level FlightAware Transoceanic
03:20PM 30.8440 -132.9935 251° West 450 518 34,000  Level FlightAware Transoceanic
03:21PM 30.8008 -133.1365 251° West 450 518 34,000  Level FlightAware Transoceanic
03:22PM 30.7139 -133.4219 250° West 468 539 34,000  Level FlightAware Transoceanic
03:23PM 30.6702 -133.5645 250° West 468 539 34,000  Level FlightAware Transoceanic
03:24PM 30.6263 -133.7069 250° West 468 539 34,000  Level FlightAware Transoceanic
03:25PM 30.5823 -133.8491 250° West 468 539 34,000  Level FlightAware Transoceanic
03:26PM 30.5382 -133.9913 250° West 468 539 34,000  Level FlightAware Transoceanic
03:27PM 30.4939 -134.1333 250° West 468 539 34,000  Level FlightAware Transoceanic
03:28PM 30.4494 -134.2752 250° West 468 539 34,000  Level FlightAware Transoceanic
03:29PM 30.4048 -134.4169 250° West 468 539 34,000  Level FlightAware Transoceanic
03:30PM 30.3600 -134.5586 250° West 468 539 34,000  Level FlightAware Transoceanic
03:31PM 30.3151 -134.7001 250° West 468 539 34,000  Level FlightAware Transoceanic
03:32PM 30.2700 -134.8414 250° West 468 539 34,000  Level FlightAware Transoceanic
03:33PM 30.2248 -134.9827 250° West 468 539 34,000  Level FlightAware Transoceanic
03:34PM 30.1794 -135.1238 250° West 468 539 34,000  Level FlightAware Transoceanic
03:35PM 30.1339 -135.2648 249° West 468 539 34,000  Level FlightAware Transoceanic
03:36PM 30.0882 -135.4056 249° West 468 539 34,000  Level FlightAware Transoceanic
03:37PM 30.0424 -135.5463 249° West 468 539 34,000  Level FlightAware Transoceanic
03:38PM 29.9964 -135.6869 249° West 468 539 34,000  Level FlightAware Transoceanic
03:39PM 29.9503 -135.8274 249° West 468 539 34,000  Level FlightAware Transoceanic
03:40PM 29.9040 -135.9677 249° West 468 539 34,000  Level FlightAware Transoceanic
03:41PM 29.8576 -136.1079 249° West 468 539 34,000  Level FlightAware Transoceanic
03:42PM 29.8110 -136.2479 249° West 468 539 34,000  Level FlightAware Transoceanic
03:43PM 29.7643 -136.3879 249° West 468 539 34,000  Level FlightAware Transoceanic
03:44PM 29.7174 -136.5277 249° West 468 539 34,000  Level FlightAware Transoceanic
03:45PM 29.6704 -136.6673 249° West 468 539 34,000  Level FlightAware Transoceanic
03:46PM 29.6233 -136.8069 249° West 468 539 34,000  Level FlightAware Transoceanic
03:47PM 29.5760 -136.9463 249° West 468 539 34,000  Level FlightAware Transoceanic
03:48PM 29.5285 -137.0856 249° West 468 539 34,000  Level FlightAware Transoceanic
03:49PM 29.4809 -137.2247 249° West 468 539 34,000  Level FlightAware Transoceanic
03:50PM 29.4332 -137.3638 248° West 468 539 34,000  Level FlightAware Transoceanic
03:51PM 29.3853 -137.5026 248° West 468 539 34,000  Level FlightAware Transoceanic
03:52PM 29.3373 -137.6414 248° West 468 539 34,000  Level FlightAware Transoceanic
03:53PM 29.2891 -137.7800 248° West 468 539 34,000  Level FlightAware Transoceanic
03:54PM 29.2408 -137.9185 248° West 468 539 34,000  Level FlightAware Transoceanic
03:55PM 29.1923 -138.0569 248° West 468 539 34,000  Level FlightAware Transoceanic
03:56PM 29.1437 -138.1951 248° West 468 539 34,000  Level FlightAware Transoceanic
03:57PM 29.0950 -138.3332 248° West 468 539 34,000  Level FlightAware Transoceanic
03:58PM 29.0461 -138.4712 248° West 468 539 34,000  Level FlightAware Transoceanic
03:59PM 28.9971 -138.6090 248° West 468 539 34,000  Level FlightAware Transoceanic
04:00PM 28.9479 -138.7467 248° West 468 539 34,000  Level FlightAware Transoceanic
04:01PM 28.8986 -138.8843 248° West 468 539 34,000  Level FlightAware Transoceanic
04:02PM 28.8492 -139.0218 248° West 468 539 34,000  Level FlightAware Transoceanic
04:03PM 28.7996 -139.1591 248° West 468 539 34,000  Level FlightAware Transoceanic
04:04PM 28.7499 -139.2963 248° West 468 539 34,000  Level FlightAware Transoceanic
04:05PM 28.7000 -139.4333 247° West 468 539 34,000  Level FlightAware Transoceanic
04:06PM 28.6512 -139.5659 247° West 468 539 34,000  Level FlightAware Transoceanic
04:07PM 28.6023 -139.6984 247° West 468 539 34,000  Level FlightAware Transoceanic
04:08PM 28.5532 -139.8308 247° West 468 539 34,000  Level FlightAware Transoceanic
04:08PM 28.7000 -139.4333 247° West 463 533 34,000  Level Oakland Oceanic (ODAPS)
04:09PM 28.5040 -139.9630 247° West 468 539 34,000  Level FlightAware Transoceanic
04:10PM 28.4547 -140.0951 247° West 468 539 34,000  Level FlightAware Transoceanic
04:11PM 28.4053 -140.2271 247° West 468 539 34,000  Level FlightAware Transoceanic
04:12PM 28.3557 -140.3590 247° West 468 539 34,000  Level FlightAware Transoceanic
04:13PM 28.3060 -140.4907 247° West 468 539 34,000  Level FlightAware Transoceanic
04:14PM 28.2562 -140.6223 247° West 468 539 34,000  Level FlightAware Transoceanic
04:15PM 28.2474 -140.6456 247° West 463 533 34,000  Level FlightAware Transoceanic
04:16PM 28.1965 -140.7796 247° West 463 533 34,000  Level FlightAware Transoceanic
04:17PM 28.1454 -140.9135 247° West 463 533 34,000  Level FlightAware Transoceanic
04:18PM 28.0942 -141.0473 247° West 463 533 34,000  Level FlightAware Transoceanic
04:19PM 28.0429 -141.1810 246° West 463 533 34,000  Level FlightAware Transoceanic
04:20PM 27.9914 -141.3145 246° West 463 533 34,000  Level FlightAware Transoceanic
04:21PM 27.9398 -141.4479 246° West 463 533 34,000  Level FlightAware Transoceanic
04:22PM 27.8881 -141.5812 246° West 463 533 34,000  Level FlightAware Transoceanic
04:23PM 27.8362 -141.7144 246° West 463 533 34,000  Level FlightAware Transoceanic
04:24PM 27.7843 -141.8474 246° West 463 533 34,000  Level FlightAware Transoceanic
04:25PM 27.7322 -141.9803 246° West 463 533 34,000  Level FlightAware Transoceanic
04:26PM 27.6799 -142.1131 246° West 463 533 34,000  Level FlightAware Transoceanic
04:27PM 27.6276 -142.2457 246° West 463 533 34,000  Level FlightAware Transoceanic
04:28PM 27.5751 -142.3783 246° West 463 533 34,000  Level FlightAware Transoceanic
04:29PM 27.5225 -142.5107 246° West 463 533 34,000  Level FlightAware Transoceanic
04:30PM 27.4697 -142.6429 246° West 463 533 34,000  Level FlightAware Transoceanic
04:31PM 27.4169 -142.7751 246° West 463 533 34,000  Level FlightAware Transoceanic
04:32PM 27.3639 -142.9071 246° West 463 533 34,000  Level FlightAware Transoceanic
04:33PM 27.3108 -143.0390 246° West 463 533 34,000  Level FlightAware Transoceanic
04:34PM 27.2575 -143.1707 246° West 463 533 34,000  Level FlightAware Transoceanic
04:35PM 27.2042 -143.3024 245° Southwest 463 533 34,000  Level FlightAware Transoceanic
04:36PM 27.1507 -143.4339 245° Southwest 463 533 34,000  Level FlightAware Transoceanic
04:37PM 27.0971 -143.5652 245° Southwest 463 533 34,000  Level FlightAware Transoceanic
04:38PM 27.0434 -143.6965 245° Southwest 463 533 34,000  Level FlightAware Transoceanic
04:39PM 26.9895 -143.8276 245° Southwest 463 533 34,000  Level FlightAware Transoceanic
04:40PM 26.9356 -143.9586 245° Southwest 463 533 34,000  Level FlightAware Transoceanic
04:41PM 26.8815 -144.0895 245° Southwest 463 533 34,000  Level FlightAware Transoceanic
04:42PM 26.8273 -144.2203 245° Southwest 463 533 34,000  Level FlightAware Transoceanic
04:43PM 26.7730 -144.3509 245° Southwest 463 533 34,000  Level FlightAware Transoceanic
04:44PM 26.7185 -144.4814 245° Southwest 463 533 34,000  Level FlightAware Transoceanic
04:45PM 26.6639 -144.6118 245° Southwest 463 533 34,000  Level FlightAware Transoceanic
04:46PM 26.6093 -144.7421 245° Southwest 463 533 34,000  Level FlightAware Transoceanic
04:47PM 26.5545 -144.8722 245° Southwest 463 533 34,000  Level FlightAware Transoceanic
04:48PM 26.4995 -145.0022 245° Southwest 463 533 34,000  Level FlightAware Transoceanic
04:49PM 26.4445 -145.1321 245° Southwest 463 533 34,000  Level FlightAware Transoceanic
04:50PM 26.3894 -145.2618 245° Southwest 463 533 34,000  Level FlightAware Transoceanic
04:51PM 26.3341 -145.3915 245° Southwest 463 533 34,000  Level FlightAware Transoceanic
04:52PM 26.2787 -145.5210 244° Southwest 463 533 34,000  Level FlightAware Transoceanic
04:53PM 26.2232 -145.6504 244° Southwest 463 533 34,000  Level FlightAware Transoceanic
04:54PM 26.1676 -145.7796 244° Southwest 463 533 34,000  Level FlightAware Transoceanic
04:55PM 26.1118 -145.9088 244° Southwest 463 533 34,000  Level FlightAware Transoceanic
04:56PM 26.0560 -146.0378 244° Southwest 463 533 34,000  Level FlightAware Transoceanic
04:57PM 26.0000 -146.1667 244° Southwest 463 533 34,000  Level FlightAware Transoceanic
04:58PM 25.9463 -146.2906 244° Southwest 463 533 34,000  Level FlightAware Transoceanic
04:59PM 25.8925 -146.4144 244° Southwest 463 533 34,000  Level FlightAware Transoceanic
05:00PM 25.8386 -146.5381 244° Southwest 463 533 34,000  Level FlightAware Transoceanic
05:00PM 26.0000 -146.1667 244° Southwest 453 521 34,000  Level Oakland Oceanic (ODAPS)
05:01PM 25.7846 -146.6617 244° Southwest 463 533 34,000  Level FlightAware Transoceanic
05:02PM 25.7304 -146.7852 244° Southwest 463 533 34,000  Level FlightAware Transoceanic
05:03PM 25.6762 -146.9086 244° Southwest 463 533 34,000  Level FlightAware Transoceanic
05:04PM 25.6219 -147.0318 244° Southwest 463 533 34,000  Level FlightAware Transoceanic
05:05PM 25.5675 -147.1550 244° Southwest 463 533 34,000  Level FlightAware Transoceanic
05:06PM 25.5129 -147.2780 244° Southwest 463 533 34,000  Level FlightAware Transoceanic
05:07PM 25.3920 -147.5497 244° Southwest 453 521 34,000  Level FlightAware Transoceanic
05:08PM 25.3360 -147.6747 244° Southwest 453 521 34,000  Level FlightAware Transoceanic
05:09PM 25.2800 -147.7997 244° Southwest 453 521 34,000  Level FlightAware Transoceanic
05:10PM 25.2239 -147.9245 244° Southwest 453 521 34,000  Level FlightAware Transoceanic
05:11PM 25.1677 -148.0491 243° Southwest 453 521 34,000  Level FlightAware Transoceanic
05:12PM 25.1113 -148.1737 243° Southwest 453 521 34,000  Level FlightAware Transoceanic
05:13PM 25.0549 -148.2982 243° Southwest 453 521 34,000  Level FlightAware Transoceanic
05:14PM 24.9983 -148.4225 243° Southwest 453 521 34,000  Level FlightAware Transoceanic
05:15PM 24.9417 -148.5467 243° Southwest 453 521 34,000  Level FlightAware Transoceanic
05:16PM 24.8849 -148.6708 243° Southwest 453 521 34,000  Level FlightAware Transoceanic
05:17PM 24.8281 -148.7948 243° Southwest 453 521 34,000  Level FlightAware Transoceanic
05:18PM 24.7711 -148.9187 243° Southwest 453 521 34,000  Level FlightAware Transoceanic
05:19PM 24.7141 -149.0425 243° Southwest 453 521 34,000  Level FlightAware Transoceanic
05:20PM 24.6569 -149.1662 243° Southwest 453 521 34,000  Level FlightAware Transoceanic
05:21PM 24.5996 -149.2897 243° Southwest 453 521 34,000  Level FlightAware Transoceanic
05:22PM 24.5423 -149.4131 243° Southwest 453 521 34,000  Level FlightAware Transoceanic
05:23PM 24.4848 -149.5365 243° Southwest 453 521 34,000  Level FlightAware Transoceanic
05:24PM 24.4272 -149.6597 243° Southwest 453 521 34,000  Level FlightAware Transoceanic
05:25PM 24.3696 -149.7827 243° Southwest 453 521 34,000  Level FlightAware Transoceanic
05:26PM 24.3118 -149.9057 243° Southwest 453 521 34,000  Level FlightAware Transoceanic
05:27PM 24.2540 -150.0286 243° Southwest 453 521 34,000  Level FlightAware Transoceanic
05:28PM 24.1960 -150.1514 243° Southwest 453 521 34,000  Level FlightAware Transoceanic
05:29PM 24.1380 -150.2740 243° Southwest 453 521 34,000  Level FlightAware Transoceanic
05:30PM 24.0798 -150.3965 243° Southwest 453 521 34,000  Level FlightAware Transoceanic
05:31PM 24.0215 -150.5190 242° Southwest 453 521 34,000  Level FlightAware Transoceanic
05:32PM 23.9632 -150.6413 242° Southwest 453 521 34,000  Level FlightAware Transoceanic
05:33PM 23.9047 -150.7635 242° Southwest 453 521 34,000  Level FlightAware Transoceanic
05:34PM 23.8462 -150.8855 242° Southwest 453 521 34,000  Level FlightAware Transoceanic
05:35PM 23.7876 -151.0075 242° Southwest 453 521 34,000  Level FlightAware Transoceanic
05:36PM 23.7288 -151.1294 242° Southwest 453 521 34,000  Level FlightAware Transoceanic
05:37PM 23.6700 -151.2512 242° Southwest 453 521 34,000  Level FlightAware Transoceanic
05:38PM 23.6111 -151.3728 242° Southwest 453 521 34,000  Level FlightAware Transoceanic
05:39PM 23.5520 -151.4944 242° Southwest 453 521 34,000  Level FlightAware Transoceanic
05:40PM 23.4929 -151.6158 242° Southwest 453 521 34,000  Level FlightAware Transoceanic
05:41PM 23.4337 -151.7371 242° Southwest 453 521 34,000  Level FlightAware Transoceanic
05:42PM 23.3744 -151.8583 242° Southwest 453 521 34,000  Level FlightAware Transoceanic
05:43PM 23.3150 -151.9794 242° Southwest 453 521 34,000  Level FlightAware Transoceanic
05:44PM 23.2555 -152.1004 242° Southwest 453 521 34,000  Level FlightAware Transoceanic
05:45PM 23.1960 -152.2213 242° Southwest 453 521 34,000  Level FlightAware Transoceanic
05:46PM 23.1363 -152.3421 242° Southwest 453 521 34,000  Level FlightAware Transoceanic
05:47PM 23.0765 -152.4628 242° Southwest 453 521 34,000  Level FlightAware Transoceanic
05:48PM 23.0167 -152.5833 242° Southwest 453 521 34,000  Level FlightAware Transoceanic
05:49PM 22.9580 -152.7020 242° Southwest 453 521 34,000  Level FlightAware Transoceanic
05:50PM 22.8993 -152.8206 242° Southwest 453 521 34,000  Level FlightAware Transoceanic
05:51PM 22.8404 -152.9391 242° Southwest 453 521 34,000  Level FlightAware Transoceanic
05:52PM 22.7815 -153.0575 242° Southwest 453 521 34,000  Level FlightAware Transoceanic
05:52PM 22.9167 -152.7833 241° Southwest 440 506 34,000  Level Honolulu Center
05:53PM 22.7225 -153.1758 242° Southwest 453 521 34,000  Level FlightAware Transoceanic
05:53PM 22.8667 -152.9000 245° Southwest 440 506 34,000  Level Honolulu Center
05:54PM 22.6634 -153.2939 242° Southwest 453 521 34,000  Level FlightAware Transoceanic
05:54PM 22.8167 -153.0000 242° Southwest 450 518 34,000  Level Honolulu Center
05:55PM 22.6042 -153.4120 241° Southwest 453 521 34,000  Level FlightAware Transoceanic
05:55PM 22.7500 -153.1333 242° Southwest 440 506 34,000  Level Honolulu Center
05:56PM 22.5450 -153.5300 241° Southwest 453 521 34,000  Level FlightAware Transoceanic
05:56PM 22.7000 -153.2667 248° West 430 495 34,000  Level Honolulu Center
05:57PM 22.4856 -153.6479 241° Southwest 453 521 34,000  Level FlightAware Transoceanic
05:57PM 22.6667 -153.3833 253° West 440 506 34,000  Level Honolulu Center
05:58PM 22.6333 -153.5167 255° West 430 495 34,000  Level Honolulu Center
05:59PM 22.6000 -153.6333 253° West 430 495 34,000  Level Honolulu Center
06:00PM 22.5667 -153.7667 255° West 430 495 34,000  Level Honolulu Center
06:01PM 22.5333 -153.8833 253° West 430 495 34,000  Level Honolulu Center
06:02PM 22.5000 -154.0167 255° West 420 483 34,000  Level Honolulu Center
06:03PM 22.4500 -154.1333 245° Southwest 420 483 34,000  Level Honolulu Center
06:04PM 22.4167 -154.2500 253° West 430 495 34,000  Level Honolulu Center
06:05PM 22.3833 -154.3833 255° West 430 495 34,000  Level Honolulu Center
06:06PM 22.3500 -154.5000 253° West 420 483 34,000  Level Honolulu Center
06:07PM 22.3167 -154.6167 253° West 430 495 34,000  Level Honolulu Center
06:08PM 22.2833 -154.7333 253° West 410 472 34,000  Level Honolulu Center
06:09PM 22.2333 -154.8500 245° Southwest 420 483 34,000 -300 Level Honolulu Center
06:10PM 22.2000 -154.9833 255° West 420 483 33,500 -1,320 Descending Honolulu Center
06:11PM 22.1667 -155.1000 253° West 440 506 31,400 -1,800 Descending Honolulu Center
06:12PM 22.1333 -155.2333 255° West 450 518 30,000 -720 Descending Honolulu Center
06:13PM 22.0833 -155.3500 245° Southwest 450 518 30,000  Level Honolulu Center
06:14PM 22.0500 -155.4833 255° West 450 518 30,000  Level Honolulu Center
06:15PM 22.0167 -155.6167 255° West 440 506 30,000  Level Honolulu Center
06:16PM 21.9667 -155.7333 245° Southwest 440 506 30,000 -120 Level Honolulu Center
06:17PM 21.9333 -155.8500 253° West 420 483 29,800 -600 Descending Honolulu Center
06:18PM 21.9000 -155.9833 255° West 420 483 28,800 -1,020 Descending Honolulu Center
06:19PM 21.9000 -156.1000 270° West 410 472 27,800 -960 Descending Honolulu Center
06:20PM 21.9167 -156.2000 280° West 380 437 26,900 -900 Descending Honolulu Center
06:21PM 21.9333 -156.3167 279° West 360 414 26,000 -720 Descending Honolulu Center
06:22PM 21.9667 -156.4167 290° West 350 403 25,500 -480 Descending Honolulu Center
06:23PM 21.9500 -156.5167 260° West 350 403 25,100 -480 Descending Honolulu Center
06:24PM 21.9000 -156.6000 237° Southwest 340 391 24,600 -540 Descending Honolulu Center
06:25PM 21.8500 -156.6833 237° Southwest 330 380 24,100 -540 Descending Honolulu Center
06:26PM 21.8000 -156.7667 237° Southwest 340 391 23,600 -540 Descending Honolulu Center
06:27PM 21.7667 -156.8500 247° West 340 391 23,100 -540 Descending Honolulu Center
06:28PM 21.7167 -156.9333 237° Southwest 340 391 22,600 -540 Descending Honolulu Center
06:29PM 21.6667 -157.0333 242° Southwest 330 380 22,100 -540 Descending Honolulu Center
06:30PM 21.6167 -157.1167 237° Southwest 320 368 21,600 -900 Descending Honolulu Center
06:31PM 21.5667 -157.2000 237° Southwest 320 368 20,300 -1,440 Descending Honolulu Center
06:32PM 21.5333 -157.2833 247° West 300 345 18,700 -1,680 Descending Honolulu Center
06:33PM 21.4833 -157.3667 237° Southwest 300 345 17,000 -1,560 Descending Honolulu Center
06:34PM 21.4500 -157.4333 242° Southwest 300 345 15,600 -1,440 Descending Honolulu Center
06:35PM 21.4167 -157.5333 250° West 290 334 14,200 -1,440 Descending Honolulu Center
06:36PM 21.3833 -157.6000 242° Southwest 280 322 12,800 -1,500 Descending Honolulu Center
06:37PM 21.3500 -157.6833 247° West 280 322 11,300 -1,500 Descending Honolulu Center
06:38PM 21.3167 -157.7667 247° West 280 322 9,900 -1,440 Descending Honolulu Center